Strona główna
METAR-TAF:

METAR-TAF

Lotnisko :

Port lotniczy Konakry

Konakry, Gwinea

Szerokość geograficzna: 09-34N, Długość geograficzna: 013-37W, wysokość: 26 m

Aktualna obserwacja pogody

Raport powstał 1 godzina i 31 minut temu, godzina 20:00 UTC
Wiatr 2 kt z kierunków zmiennych
Temperatura 29°C
Wilgotność 74%
Ciśnienie 1014 hPa
Widzialność 10 km lub więcej
Mało chmury na wysokości 1500 ft
Rozproszone chmury na wysokości 11000 ft

METAR: GUCY 092000Z VRB02KT 9999 FEW015 SCT110 29/24 Q1014 NOSIG

czas: 21:31 (21:31 UTC)

Prognoza

Raport powstał 4 godziny i 31 minut temu, godzina 17:00 UTC
Prognoza ważna od 09 godzina 18 UTC do 10 godzina 24 UTC
Wiatr 6 kt od zachodnio-północny zachód
Widzialność: 5000 m
Mało chmury na wysokości 1500 ft
Rozproszone chmury na wysokości 11000 ft
zmętnienie
Przejściowo
od 10 godzina 00 UTC do 10 godzina 06 UTC
Wiatr 2 kt z kierunków zmiennych
Widzialność: 3000 m
Przerywane chmury na wysokości 11000 ft
zamglenie

TAF: GUCY 091700Z 0918/1024 29006KT 5000 HZ FEW015 SCT110 TEMPO 1000/1006 VRB02KT 3000 BR BKN110

Obserwacja i prognoza pogody dla ponad 4000 lotnisk (raport METAR i TAF).

Dostępne stacje oznaczono żółtymi i czerwonymi punktami na mapie.

Najedź kursorem aby zobaczyć nazwę stacji.

Kliknij aby zobaczyć obserwacje i prognozy pogody.

Aby zmienić mapę: kliknij na zielony przycisk z czarnym krzyżykiem, aby powiększyć; na zielony przycisk z myślnikiem, aby pomniejszyć; na zielone strzałki, aby przejść do map sąsiednich.


METAR-TAF: